createdAt,value
2023-01-27T00:01:20.033Z,3.92
2023-01-27T00:03:49.133Z,3.95
2023-01-27T00:06:18.159Z,3.97
2023-01-27T00:08:47.202Z,3.98
2023-01-27T00:11:34.797Z,3.98
2023-01-27T00:14:03.815Z,3.98
2023-01-27T00:16:32.883Z,4.00
2023-01-27T00:19:01.869Z,3.99
2023-01-27T00:21:48.306Z,3.98
2023-01-27T00:24:34.934Z,3.99
2023-01-27T00:27:05.897Z,3.99
2023-01-27T00:29:34.913Z,4.01
2023-01-27T00:32:22.382Z,4.00
2023-01-27T00:34:51.848Z,3.97
2023-01-27T00:37:21.416Z,3.99
2023-01-27T00:39:50.465Z,4.00
2023-01-27T00:42:20.929Z,4.00
2023-01-27T00:45:05.890Z,3.99
2023-01-27T00:47:34.964Z,3.98
2023-01-27T00:50:04.099Z,4.02
2023-01-27T00:52:33.213Z,4.02
2023-01-27T00:55:02.237Z,4.02
2023-01-27T00:57:32.655Z,4.02
2023-01-27T01:00:01.660Z,4.03
2023-01-27T01:02:30.830Z,3.97
2023-01-27T01:04:59.981Z,4.03
2023-01-27T01:07:31.264Z,4.03
2023-01-27T01:10:00.336Z,4.04
2023-01-27T01:12:29.477Z,4.00
2023-01-27T01:14:59.853Z,4.02
2023-01-27T01:17:29.324Z,4.00
2023-01-27T01:19:59.952Z,3.98
2023-01-27T01:22:29.062Z,3.97
2023-01-27T01:24:58.475Z,3.98
2023-01-27T01:27:27.777Z,3.98
2023-01-27T01:29:56.779Z,3.97
2023-01-27T01:32:27.188Z,3.94
2023-01-27T01:34:56.185Z,3.92
2023-01-27T01:37:25.282Z,3.87
2023-01-27T01:39:54.630Z,3.88
2023-01-27T01:42:23.720Z,3.86
2023-01-27T01:45:15.857Z,3.87
2023-01-27T01:47:46.345Z,3.89
2023-01-27T01:50:16.419Z,3.84
2023-01-27T01:52:46.451Z,3.83
2023-01-27T01:55:15.547Z,3.84
2023-01-27T01:57:45.224Z,3.80
2023-01-27T02:00:15.723Z,3.83
2023-01-27T02:02:50.958Z,3.78
2023-01-27T02:05:27.345Z,3.82
2023-01-27T02:08:01.962Z,3.79
2023-01-27T02:10:31.228Z,3.78
2023-01-27T02:13:00.252Z,3.78
2023-01-27T02:15:31.692Z,3.80
2023-01-27T02:18:03.230Z,3.76
2023-01-27T02:20:41.875Z,3.77
2023-01-27T02:23:24.386Z,3.76
2023-01-27T02:25:59.117Z,3.74
2023-01-27T02:28:29.466Z,3.73
2023-01-27T02:30:58.906Z,3.69
2023-01-27T02:33:28.113Z,3.63
2023-01-27T02:36:03.169Z,3.65
2023-01-27T02:38:36.103Z,3.61
2023-01-27T02:41:12.190Z,3.58
2023-01-27T02:43:41.314Z,3.57
2023-01-27T02:46:10.780Z,3.56
2023-01-27T02:48:39.820Z,3.55
2023-01-27T02:51:08.883Z,3.48
2023-01-27T02:53:41.087Z,3.48
2023-01-27T02:56:11.602Z,3.49
2023-01-27T02:58:40.636Z,3.50
2023-01-27T03:01:14.239Z,3.48
2023-01-27T03:03:46.884Z,3.50
2023-01-27T03:06:21.362Z,3.42
2023-01-27T03:08:50.474Z,3.44
2023-01-27T03:11:34.853Z,3.44
2023-01-27T03:14:05.621Z,3.38
2023-01-27T03:16:52.568Z,3.43
2023-01-27T03:19:21.612Z,3.39
2023-01-27T03:21:51.023Z,3.38
2023-01-27T03:24:20.397Z,3.39
2023-01-27T03:26:51.055Z,3.38
2023-01-27T03:29:40.262Z,3.36
2023-01-27T03:32:09.366Z,3.35
2023-01-27T03:34:38.500Z,3.36
2023-01-27T03:37:32.789Z,3.36
2023-01-27T03:40:19.296Z,3.31
2023-01-27T03:43:10.523Z,3.35
2023-01-27T03:45:57.450Z,3.30
2023-01-27T03:48:28.261Z,3.33
2023-01-27T03:50:59.277Z,3.32
2023-01-27T03:53:28.346Z,3.29
2023-01-27T03:55:57.372Z,3.31
2023-01-27T03:58:29.531Z,3.30
2023-01-27T04:01:00.053Z,3.24
2023-01-27T04:03:48.920Z,3.26
2023-01-27T04:06:37.494Z,3.26
2023-01-27T04:09:07.417Z,3.22
2023-01-27T04:11:54.100Z,3.23
2023-01-27T04:14:26.395Z,3.22
2023-01-27T04:16:57.682Z,3.27
2023-01-27T04:19:27.042Z,3.31
2023-01-27T04:21:57.272Z,3.24
2023-01-27T04:24:26.573Z,3.23
2023-01-27T04:26:58.579Z,3.21
2023-01-27T04:29:31.187Z,3.22
2023-01-27T04:32:00.696Z,3.16
2023-01-27T04:34:30.544Z,3.18
2023-01-27T04:37:00.208Z,3.19
2023-01-27T04:39:29.350Z,3.15
2023-01-27T04:41:59.105Z,3.15
2023-01-27T04:44:29.471Z,3.10
2023-01-27T04:46:58.609Z,3.11
2023-01-27T04:49:27.765Z,3.12
2023-01-27T04:51:57.071Z,3.06
2023-01-27T04:54:26.082Z,3.08
2023-01-27T04:57:00.336Z,3.07
2023-01-27T04:59:30.752Z,3.03
2023-01-27T05:02:00.255Z,3.01
2023-01-27T05:04:29.294Z,3.03
2023-01-27T05:06:58.297Z,2.96
2023-01-27T05:09:27.362Z,3.00
2023-01-27T05:11:56.372Z,3.00
2023-01-27T05:14:26.069Z,2.97
2023-01-27T05:16:56.566Z,3.02
2023-01-27T05:19:25.753Z,2.99
2023-01-27T05:21:54.759Z,3.02
2023-01-27T05:24:23.947Z,2.99
2023-01-27T05:26:53.460Z,2.98
2023-01-27T05:29:23.010Z,2.89
2023-01-27T05:31:52.849Z,2.91
2023-01-27T05:34:24.761Z,2.92
2023-01-27T05:36:53.950Z,2.84
2023-01-27T05:39:22.978Z,2.87
2023-01-27T05:41:51.957Z,2.81
2023-01-27T05:44:20.998Z,2.80
2023-01-27T05:46:50.104Z,2.78
2023-01-27T05:49:19.349Z,2.74
2023-01-27T05:51:49.745Z,2.72
2023-01-27T05:54:18.968Z,2.71
2023-01-27T05:56:48.057Z,2.70
2023-01-27T05:59:17.150Z,2.71
2023-01-27T06:01:46.345Z,2.70
2023-01-27T06:04:15.382Z,2.70
2023-01-27T06:06:44.483Z,2.67
2023-01-27T06:09:14.981Z,2.70
2023-01-27T06:11:44.135Z,2.67
2023-01-27T06:14:13.288Z,2.72
2023-01-27T06:16:43.535Z,2.68
2023-01-27T06:19:12.769Z,2.72
2023-01-27T06:21:41.802Z,2.67
2023-01-27T06:24:12.666Z,2.69
2023-01-27T06:26:44.064Z,2.63
2023-01-27T06:29:13.063Z,2.62
2023-01-27T06:31:42.098Z,2.61
2023-01-27T06:34:11.174Z,2.64
2023-01-27T06:36:40.187Z,2.65
2023-01-27T06:39:09.745Z,2.62
2023-01-27T06:41:38.855Z,2.63
2023-01-27T06:44:09.291Z,2.59
2023-01-27T06:46:38.335Z,2.52
2023-01-27T06:49:07.375Z,2.55
2023-01-27T06:51:36.632Z,2.55
2023-01-27T06:54:05.793Z,2.64
2023-01-27T06:56:34.821Z,2.62
2023-01-27T06:59:04.017Z,2.60
2023-01-27T07:01:35.153Z,2.60
2023-01-27T07:04:04.360Z,2.62
2023-01-27T07:06:33.975Z,2.57
2023-01-27T07:09:03.051Z,2.57
2023-01-27T07:11:32.059Z,2.52
2023-01-27T07:14:01.218Z,2.60
2023-01-27T07:16:30.515Z,2.57
2023-01-27T07:19:01.023Z,2.60
2023-01-27T07:21:30.074Z,2.56
2023-01-27T07:23:59.107Z,2.53
2023-01-27T07:26:28.249Z,2.51
2023-01-27T07:28:57.517Z,2.44
2023-01-27T07:31:26.938Z,2.43
2023-01-27T07:33:56.069Z,2.45
2023-01-27T07:36:26.720Z,2.45
2023-01-27T07:38:55.746Z,2.44
2023-01-27T07:41:25.934Z,2.45
2023-01-27T07:43:55.009Z,2.45
2023-01-27T07:46:28.372Z,2.47
2023-01-27T07:48:57.386Z,2.46
2023-01-27T07:51:27.804Z,2.41
2023-01-27T07:53:56.871Z,2.49
2023-01-27T07:56:25.963Z,2.52
2023-01-27T07:58:55.813Z,2.60
2023-01-27T08:01:25.222Z,2.54
2023-01-27T08:03:54.695Z,2.58
2023-01-27T08:06:24.046Z,2.59
2023-01-27T08:08:54.470Z,2.59
2023-01-27T08:11:23.524Z,2.61
2023-01-27T08:13:52.558Z,2.63
2023-01-27T08:16:21.612Z,2.60
2023-01-27T08:18:50.653Z,2.64
2023-01-27T08:21:19.718Z,2.57
2023-01-27T08:23:48.753Z,2.62
2023-01-27T08:26:19.260Z,2.65
2023-01-27T08:28:48.343Z,2.57
2023-01-27T08:31:18.287Z,2.60
2023-01-27T08:33:52.788Z,2.56
2023-01-27T08:36:23.408Z,2.60
2023-01-27T08:38:53.025Z,2.66
2023-01-27T08:41:25.542Z,2.57
2023-01-27T08:43:56.049Z,2.63
2023-01-27T08:46:25.106Z,2.54
2023-01-27T08:48:54.250Z,2.54
2023-01-27T08:51:23.294Z,2.57
2023-01-27T08:53:52.486Z,2.50
2023-01-27T08:56:22.982Z,2.50
2023-01-27T08:58:52.504Z,2.53
2023-01-27T09:01:22.340Z,2.63
2023-01-27T09:03:51.475Z,2.59
2023-01-27T09:06:22.214Z,2.55
2023-01-27T09:09:11.305Z,2.63
2023-01-27T09:11:44.936Z,2.56
2023-01-27T09:14:14.249Z,2.53
2023-01-27T09:16:43.301Z,2.51
2023-01-27T09:19:12.342Z,2.55
2023-01-27T09:21:41.371Z,2.64
2023-01-27T09:24:11.270Z,2.62
2023-01-27T09:26:41.767Z,2.71
2023-01-27T09:29:10.760Z,2.63
2023-01-27T09:31:39.949Z,2.65
2023-01-27T09:34:09.081Z,2.70
2023-01-27T09:36:44.025Z,2.60
2023-01-27T09:39:14.355Z,2.71
2023-01-27T09:42:08.725Z,2.63
2023-01-27T09:45:03.568Z,2.65
2023-01-27T09:47:53.176Z,2.68
2023-01-27T09:50:40.346Z,2.59
2023-01-27T09:53:33.767Z,2.56
2023-01-27T09:56:12.030Z,2.61
2023-01-27T09:58:59.052Z,2.58
2023-01-27T10:01:37.837Z,2.61
2023-01-27T10:04:29.406Z,2.61
2023-01-27T10:07:16.154Z,2.60
2023-01-27T10:09:59.682Z,2.57
2023-01-27T10:12:43.580Z,2.48
2023-01-27T10:15:29.558Z,2.64
2023-01-27T10:18:09.103Z,2.65
2023-01-27T10:20:47.117Z,2.62
2023-01-27T10:23:32.264Z,2.65
2023-01-27T10:26:15.398Z,2.60
2023-01-27T10:28:49.004Z,2.56
2023-01-27T10:31:26.601Z,2.59
2023-01-27T10:33:58.342Z,2.69
2023-01-27T10:36:35.968Z,2.68
2023-01-27T10:39:17.295Z,2.58
2023-01-27T10:41:57.343Z,2.71
2023-01-27T10:44:50.358Z,2.69
2023-01-27T10:47:36.102Z,2.70
2023-01-27T10:50:12.461Z,2.73
2023-01-27T10:52:46.822Z,2.71
2023-01-27T10:55:21.782Z,2.58
2023-01-27T10:57:55.813Z,2.74
2023-01-27T11:00:57.776Z,2.69
2023-01-27T11:03:30.075Z,2.64
2023-01-27T11:06:04.254Z,2.70
2023-01-27T11:08:37.529Z,2.73
2023-01-27T11:11:27.805Z,2.64
2023-01-27T11:14:04.468Z,2.73
2023-01-27T11:16:38.099Z,2.78
2023-01-27T11:19:19.680Z,2.76
2023-01-27T11:22:05.608Z,2.74
2023-01-27T11:24:45.490Z,2.71
2023-01-27T11:27:23.360Z,2.74
2023-01-27T11:29:59.340Z,2.77
2023-01-27T11:32:40.686Z,2.83
2023-01-27T11:35:13.644Z,2.79
2023-01-27T11:37:44.885Z,2.79
2023-01-27T11:40:20.166Z,3.04
2023-01-27T11:42:51.616Z,3.11
2023-01-27T11:45:22.207Z,3.11
2023-01-27T11:47:55.377Z,3.16
2023-01-27T11:50:30.493Z,3.25
2023-01-27T11:53:10.438Z,3.15
2023-01-27T11:55:42.431Z,3.01
2023-01-27T11:58:20.503Z,2.89
2023-01-27T12:00:54.998Z,3.00
2023-01-27T12:03:30.231Z,3.02
2023-01-27T12:06:05.379Z,2.83
2023-01-27T12:08:39.918Z,2.84
2023-01-27T12:11:21.684Z,2.82
2023-01-27T12:13:53.130Z,2.95
2023-01-27T12:16:25.771Z,3.02
2023-01-27T12:19:00.536Z,3.15
2023-01-27T12:21:41.223Z,3.09
2023-01-27T12:24:23.561Z,3.09
2023-01-27T12:26:54.352Z,2.96
2023-01-27T12:29:28.256Z,2.89
2023-01-27T12:31:59.934Z,2.88
2023-01-27T12:34:37.449Z,2.87
2023-01-27T12:37:09.219Z,2.91
2023-01-27T12:39:46.060Z,3.00
2023-01-27T12:42:38.550Z,3.00
2023-01-27T12:45:22.200Z,3.08
2023-01-27T12:48:00.318Z,3.18
2023-01-27T12:50:31.062Z,3.18
2023-01-27T12:53:12.673Z,3.32
2023-01-27T12:55:44.917Z,3.23
2023-01-27T12:58:34.730Z,3.22
2023-01-27T13:01:07.212Z,2.98
2023-01-27T13:03:41.908Z,2.99
2023-01-27T13:06:16.119Z,2.93
2023-01-27T13:08:50.767Z,2.99
2023-01-27T13:11:30.656Z,2.96
2023-01-27T13:14:00.128Z,2.97
2023-01-27T13:16:30.566Z,2.88
2023-01-27T13:19:01.873Z,2.86
2023-01-27T13:21:36.792Z,2.87
2023-01-27T13:24:15.443Z,2.92
2023-01-27T13:26:45.001Z,2.94
2023-01-27T13:29:20.107Z,2.93
2023-01-27T13:31:53.855Z,2.95
2023-01-27T13:34:32.520Z,2.99
2023-01-27T13:37:07.443Z,2.85
2023-01-27T13:39:55.041Z,2.85
2023-01-27T13:42:29.492Z,2.83
2023-01-27T13:45:03.099Z,2.85
2023-01-27T13:47:42.523Z,2.66
2023-01-27T13:50:25.541Z,2.71
2023-01-27T13:52:57.662Z,2.66
2023-01-27T13:55:47.580Z,2.72
2023-01-27T13:58:29.709Z,2.85
2023-01-27T14:01:11.520Z,2.80
2023-01-27T14:04:10.998Z,2.86
2023-01-27T14:06:52.191Z,2.93
2023-01-27T14:09:40.709Z,3.18
2023-01-27T14:12:24.772Z,3.03
2023-01-27T14:15:04.836Z,2.95
2023-01-27T14:17:43.105Z,2.77
2023-01-27T14:20:25.995Z,2.79
2023-01-27T14:23:05.129Z,2.62
2023-01-27T14:25:42.580Z,2.43
2023-01-27T14:28:28.773Z,2.51
2023-01-27T14:31:04.252Z,2.51
2023-01-27T14:33:54.210Z,2.44
2023-01-27T14:36:27.581Z,2.13
2023-01-27T14:39:07.509Z,2.08
2023-01-27T14:41:47.052Z,1.98
2023-01-27T14:44:33.830Z,1.98
2023-01-27T14:47:23.472Z,1.88
2023-01-27T14:50:13.343Z,2.01
2023-01-27T14:52:50.027Z,2.01
2023-01-27T14:55:32.358Z,2.29
2023-01-27T14:58:18.163Z,2.37
2023-01-27T15:00:59.953Z,2.35
2023-01-27T15:03:47.204Z,2.49
2023-01-27T15:06:22.216Z,2.50
2023-01-27T15:09:00.388Z,2.75
2023-01-27T15:12:03.618Z,2.77
2023-01-27T15:14:57.578Z,2.66
2023-01-27T15:17:40.923Z,2.43
2023-01-27T15:20:32.985Z,2.23
2023-01-27T15:23:21.786Z,2.22
2023-01-27T15:25:55.353Z,2.13
2023-01-27T15:28:32.546Z,2.14
2023-01-27T15:31:21.428Z,2.06
2023-01-27T15:33:54.751Z,2.00
2023-01-27T15:36:35.741Z,1.95
2023-01-27T15:39:21.811Z,1.93
2023-01-27T15:42:09.954Z,1.92
2023-01-27T15:45:01.072Z,1.86
2023-01-27T15:47:32.356Z,1.88
2023-01-27T15:50:13.427Z,1.86
2023-01-27T15:52:45.047Z,1.86
2023-01-27T15:55:27.105Z,1.84
2023-01-27T15:58:05.706Z,1.85
2023-01-27T16:00:39.036Z,1.80
2023-01-27T16:03:20.504Z,1.79
2023-01-27T16:05:56.813Z,1.81
2023-01-27T16:08:30.843Z,1.79
2023-01-27T16:11:26.308Z,1.80
2023-01-27T16:14:31.630Z,1.79
2023-01-27T16:17:10.939Z,1.82
2023-01-27T16:19:47.593Z,1.82
2023-01-27T16:22:20.264Z,1.80
2023-01-27T16:24:56.107Z,1.76
2023-01-27T16:27:37.263Z,1.77
2023-01-27T16:30:17.041Z,1.81
2023-01-27T16:32:58.238Z,1.84
2023-01-27T16:35:27.535Z,1.77
2023-01-27T16:38:06.283Z,1.75
2023-01-27T16:40:38.597Z,1.72
2023-01-27T16:43:16.083Z,1.73
2023-01-27T16:45:48.762Z,1.75
2023-01-27T16:48:27.662Z,1.68
2023-01-27T16:51:06.951Z,1.71
2023-01-27T16:53:37.659Z,1.65
2023-01-27T16:56:08.752Z,1.71
2023-01-27T16:58:46.029Z,1.66
2023-01-27T17:01:24.555Z,1.66
2023-01-27T17:04:00.669Z,1.66
2023-01-27T17:06:33.386Z,1.70
2023-01-27T17:09:03.829Z,1.72
2023-01-27T17:11:33.872Z,1.81
2023-01-27T17:14:04.918Z,1.75
2023-01-27T17:16:37.445Z,1.79
2023-01-27T17:19:11.742Z,1.72
2023-01-27T17:21:45.742Z,1.73
2023-01-27T17:24:20.187Z,1.76
2023-01-27T17:26:55.614Z,1.77
2023-01-27T17:29:29.136Z,1.71
2023-01-27T17:31:58.321Z,1.77
2023-01-27T17:34:27.447Z,1.69
2023-01-27T17:37:15.166Z,1.74
2023-01-27T17:39:46.806Z,1.71
2023-01-27T17:42:17.600Z,1.72
2023-01-27T17:44:47.285Z,1.74
2023-01-27T17:47:18.184Z,1.79
2023-01-27T17:49:49.372Z,1.76
2023-01-27T17:52:22.674Z,1.80
2023-01-27T17:54:53.756Z,1.78
2023-01-27T17:57:24.818Z,1.77
2023-01-27T17:59:59.204Z,1.76
2023-01-27T18:02:30.990Z,1.79
2023-01-27T18:05:04.133Z,1.78
2023-01-27T18:07:33.905Z,1.79
2023-01-27T18:10:24.241Z,1.83
2023-01-27T18:12:54.833Z,1.77
2023-01-27T18:15:48.555Z,1.76
2023-01-27T18:18:24.084Z,1.81
2023-01-27T18:21:05.263Z,1.80
2023-01-27T18:23:36.711Z,1.77
2023-01-27T18:26:16.020Z,1.80
2023-01-27T18:28:46.945Z,1.76
2023-01-27T18:31:21.519Z,1.73
2023-01-27T18:33:58.533Z,1.72
2023-01-27T18:36:37.145Z,1.71
2023-01-27T18:39:28.897Z,1.75
2023-01-27T18:41:59.551Z,1.70
2023-01-27T18:44:34.505Z,1.68
2023-01-27T18:47:36.345Z,1.68
2023-01-27T18:50:26.617Z,1.67
2023-01-27T18:52:56.679Z,1.68
2023-01-27T18:55:30.314Z,1.66
2023-01-27T18:58:01.423Z,1.66
2023-01-27T19:00:34.872Z,1.69
2023-01-27T19:03:04.695Z,1.68
2023-01-27T19:05:35.617Z,1.68
2023-01-27T19:08:05.627Z,1.61
2023-01-27T19:10:36.794Z,1.60
2023-01-27T19:13:07.159Z,1.61
2023-01-27T19:15:39.715Z,1.64
2023-01-27T19:18:15.916Z,1.65
2023-01-27T19:20:44.991Z,1.68
2023-01-27T19:23:15.776Z,1.64
2023-01-27T19:25:46.892Z,1.66
2023-01-27T19:28:28.473Z,1.66
2023-01-27T19:30:57.992Z,1.62
2023-01-27T19:33:28.268Z,1.64
2023-01-27T19:36:00.770Z,1.61
2023-01-27T19:38:30.904Z,1.61
2023-01-27T19:41:00.100Z,1.60
2023-01-27T19:43:30.690Z,1.60
2023-01-27T19:46:00.216Z,1.55
2023-01-27T19:48:31.437Z,1.56
2023-01-27T19:51:00.517Z,1.51
2023-01-27T19:53:30.199Z,1.45
2023-01-27T19:55:59.573Z,1.42
2023-01-27T19:58:30.231Z,1.51
2023-01-27T20:00:59.563Z,1.56
2023-01-27T20:03:30.854Z,1.55
2023-01-27T20:05:59.905Z,1.53
2023-01-27T20:08:28.954Z,1.48
2023-01-27T20:11:00.818Z,1.43
2023-01-27T20:13:31.227Z,1.38
2023-01-27T20:16:00.222Z,1.34
2023-01-27T20:18:31.138Z,1.33
2023-01-27T20:21:00.347Z,1.26
2023-01-27T20:23:29.427Z,1.07
2023-01-27T20:25:58.615Z,1.06
2023-01-27T20:28:28.382Z,1.04
2023-01-27T20:30:59.290Z,1.00
2023-01-27T20:33:28.611Z,0.93
2023-01-27T20:35:57.668Z,0.95
2023-01-27T20:38:26.839Z,0.89
2023-01-27T20:40:55.898Z,0.92
2023-01-27T20:43:34.747Z,0.93
2023-01-27T20:46:08.522Z,0.91
2023-01-27T20:48:38.157Z,0.95
2023-01-27T20:51:12.359Z,0.91
2023-01-27T20:53:46.060Z,0.99
2023-01-27T20:56:16.567Z,0.99
2023-01-27T20:58:45.883Z,1.08
2023-01-27T21:01:18.339Z,1.05
2023-01-27T21:03:47.585Z,1.07
2023-01-27T21:06:17.783Z,1.07
2023-01-27T21:08:49.140Z,1.03
2023-01-27T21:11:20.520Z,0.80
2023-01-27T21:13:49.954Z,0.86
2023-01-27T21:16:21.278Z,0.92
2023-01-27T21:18:50.544Z,0.98
2023-01-27T21:21:25.691Z,1.06
2023-01-27T21:23:54.866Z,1.09
2023-01-27T21:26:24.667Z,1.04
2023-01-27T21:28:55.806Z,0.99
2023-01-27T21:31:30.045Z,1.05
2023-01-27T21:34:01.446Z,1.06
2023-01-27T21:36:30.960Z,1.12
2023-01-27T21:39:02.327Z,1.15
2023-01-27T21:41:49.172Z,1.09
2023-01-27T21:44:40.510Z,1.13
2023-01-27T21:47:13.223Z,1.18
2023-01-27T21:50:03.323Z,1.20
2023-01-27T21:52:35.793Z,1.13
2023-01-27T21:55:07.306Z,1.22
2023-01-27T21:57:36.669Z,1.36
2023-01-27T22:00:08.981Z,1.32
2023-01-27T22:02:46.900Z,1.28
2023-01-27T22:05:19.246Z,1.19
2023-01-27T22:07:48.835Z,1.20
2023-01-27T22:10:20.045Z,1.17
2023-01-27T22:12:51.185Z,1.21
2023-01-27T22:15:24.135Z,1.18
2023-01-27T22:17:54.879Z,1.13
2023-01-27T22:20:27.779Z,1.20
2023-01-27T22:22:57.330Z,1.24
2023-01-27T22:25:27.241Z,1.24
2023-01-27T22:28:03.817Z,0.83
2023-01-27T22:30:34.734Z,0.97
2023-01-27T22:33:08.005Z,1.04
2023-01-27T22:35:44.172Z,1.09
2023-01-27T22:38:13.770Z,1.13
2023-01-27T22:40:43.196Z,1.17
2023-01-27T22:43:16.660Z,1.18
2023-01-27T22:45:46.991Z,1.17
2023-01-27T22:48:27.865Z,1.14
2023-01-27T22:51:04.078Z,1.16
2023-01-27T22:53:39.182Z,1.14
2023-01-27T22:56:11.770Z,1.19
2023-01-27T22:58:42.340Z,1.26
2023-01-27T23:01:16.260Z,1.28
2023-01-27T23:03:48.848Z,1.30
2023-01-27T23:06:19.188Z,1.32
2023-01-27T23:08:49.178Z,1.28
2023-01-27T23:11:20.781Z,1.28
2023-01-27T23:13:57.464Z,0.94
2023-01-27T23:16:27.123Z,1.04
2023-01-27T23:18:57.929Z,0.96
2023-01-27T23:21:31.807Z,0.99
2023-01-27T23:24:00.948Z,0.99
2023-01-27T23:26:30.040Z,1.06
2023-01-27T23:28:59.161Z,1.08
2023-01-27T23:31:28.352Z,1.06
2023-01-27T23:33:58.783Z,1.11
2023-01-27T23:36:27.843Z,1.15
2023-01-27T23:38:56.916Z,1.10
2023-01-27T23:41:26.037Z,1.07
2023-01-27T23:43:56.651Z,1.07
2023-01-27T23:46:26.353Z,1.09
2023-01-27T23:48:56.549Z,1.11
2023-01-27T23:51:26.976Z,1.08
2023-01-27T23:53:55.955Z,1.14
2023-01-27T23:56:24.997Z,1.05
2023-01-27T23:58:55.558Z,0.98
